<?xml version="1.0" encoding="UTF-8" standalone="no" ?>
<gpx xmlns="http://www.topografix.com/GPX/1/1" xmlns:xsi="http://www.w3.org/2001/XMLSchema-instance" xsi:schemaLocation="http://www.topografix.com/GPX/1/1 http://www.topografix.com/GPX/1/1/gpx.xsd" version="1.1" creator="VisuGPX - https://www.visugpx.com">
  <metadata>
    <name>Bagnols -Pennafort -Fille d'Isnard</name>
    <desc><![CDATA[avec RA]]></desc>
  </metadata>
  <trk>
    <name><![CDATA[Bagnols -Pennafort -Fille d'Isnard_13]]></name>
    <extensions>
      <line xmlns="http://www.topografix.com/GPX/gpx_style/0/2">
        <color>0000FF</color>
        <width>4</width>
      </line>
    </extensions>
    <trkseg>
      <trkpt lat="43.55173" lon="6.78212">
        <ele>111</ele>
        <time>2025-10-24T09:44:18.000Z</time>
        <extensions>
          <visugpx:TrkExtension xmlns:visugpx="https://www.visugpx.com/editgpx/">
            <visugpx:node>1</visugpx:node>
            </visugpx:TrkExtension>
        </extensions>
      </trkpt>
      <trkpt lat="43.55174" lon="6.78205">
        <ele>111.4</ele>
        <time>2025-10-24T09:44:19.000Z</time>
      </trkpt>
      <trkpt lat="43.55174" lon="6.78199">
        <ele>111.8</ele>
        <time>2025-10-24T09:44:20.000Z</time>
      </trkpt>
      <trkpt lat="43.55175" lon="6.78193">
        <ele>112.2</ele>
        <time>2025-10-24T09:44:21.000Z</time>
      </trkpt>
      <trkpt lat="43.55175" lon="6.78187">
        <ele>112.5</ele>
        <time>2025-10-24T09:44:22.000Z</time>
      </trkpt>
      <trkpt lat="43.55175" lon="6.78182">
        <ele>112.9</ele>
        <time>2025-10-24T09:44:23.000Z</time>
      </trkpt>
      <trkpt lat="43.55174" lon="6.78177">
        <ele>113.2</ele>
        <time>2025-10-24T09:44:24.000Z</time>
      </trkpt>
      <trkpt lat="43.55172" lon="6.78174">
        <ele>113.4</ele>
        <time>2025-10-24T09:44:25.000Z</time>
      </trkpt>
      <trkpt lat="43.5517" lon="6.78172">
        <ele>113.7</ele>
        <time>2025-10-24T09:44:26.000Z</time>
      </trkpt>
      <trkpt lat="43.55169" lon="6.78171">
        <ele>113.8</ele>
        <time>2025-10-24T09:44:27.000Z</time>
      </trkpt>
      <trkpt lat="43.55168" lon="6.7817">
        <ele>113.9</ele>
        <time>2025-10-24T09:44:28.000Z</time>
      </trkpt>
      <trkpt lat="43.55167" lon="6.7817">
        <ele>113.9</ele>
        <time>2025-10-24T09:44:29.000Z</time>
      </trkpt>
      <trkpt lat="43.55167" lon="6.78171">
        <ele>113.9</ele>
        <time>2025-10-24T09:44:30.000Z</time>
      </trkpt>
      <trkpt lat="43.55168" lon="6.78171">
        <ele>114</ele>
        <time>2025-10-24T09:44:31.000Z</time>
      </trkpt>
      <trkpt lat="43.55168" lon="6.78171">
        <ele>114</ele>
        <time>2025-10-24T09:44:32.000Z</time>
      </trkpt>
      <trkpt lat="43.55168" lon="6.78171">
        <ele>114</ele>
        <time>2025-10-24T09:44:33.000Z</time>
      </trkpt>
      <trkpt lat="43.55167" lon="6.78172">
        <ele>114</ele>
        <time>2025-10-24T09:44:34.000Z</time>
      </trkpt>
      <trkpt lat="43.55167" lon="6.78172">
        <ele>114</ele>
        <time>2025-10-24T09:44:35.000Z</time>
      </trkpt>
      <trkpt lat="43.55167" lon="6.78172">
        <ele>114.1</ele>
        <time>2025-10-24T09:44:36.000Z</time>
      </trkpt>
      <trkpt lat="43.55167" lon="6.78173">
        <ele>114.1</ele>
        <time>2025-10-24T09:44:37.000Z</time>
      </trkpt>
      <trkpt lat="43.55167" lon="6.78173">
        <ele>114.1</ele>
        <time>2025-10-24T09:44:38.000Z</time>
      </trkpt>
      <trkpt lat="43.55167" lon="6.78173">
        <ele>114.2</ele>
        <time>2025-10-24T09:44:39.000Z</time>
      </trkpt>
      <trkpt lat="43.55166" lon="6.78173">
        <ele>114.2</ele>
        <time>2025-10-24T09:44:40.000Z</time>
      </trkpt>
      <trkpt lat="43.55166" lon="6.78173">
        <ele>114.2</ele>
        <time>2025-10-24T09:44:41.000Z</time>
      </trkpt>
      <trkpt lat="43.55166" lon="6.78173">
        <ele>114.2</ele>
        <time>2025-10-24T09:44:42.000Z</time>
      </trkpt>
      <trkpt lat="43.55166" lon="6.78173">
        <ele>114.2</ele>
        <time>2025-10-24T09:44:43.000Z</time>
      </trkpt>
      <trkpt lat="43.55166" lon="6.78173">
        <ele>114.2</ele>
        <time>2025-10-24T09:44:44.000Z</time>
      </trkpt>
      <trkpt lat="43.55166" lon="6.78173">
        <ele>114.2</ele>
        <time>2025-10-24T09:44:45.000Z</time>
      </trkpt>
      <trkpt lat="43.55166" lon="6.78173">
        <ele>114.2</ele>
        <time>2025-10-24T09:44:46.000Z</time>
      </trkpt>
      <trkpt lat="43.55166" lon="6.78173">
        <ele>114.2</ele>
        <time>2025-10-24T09:44:47.000Z</time>
      </trkpt>
      <trkpt lat="43.55166" lon="6.78173">
        <ele>114.2</ele>
        <time>2025-10-24T09:44:48.000Z</time>
      </trkpt>
      <trkpt lat="43.55166" lon="6.78173">
        <ele>114.2</ele>
        <time>2025-10-24T09:44:49.000Z</time>
      </trkpt>
      <trkpt lat="43.55166" lon="6.78173">
        <ele>114.2</ele>
        <time>2025-10-24T09:44:50.000Z</time>
      </trkpt>
      <trkpt lat="43.55167" lon="6.78173">
        <ele>114.2</ele>
        <time>2025-10-24T09:44:51.000Z</time>
      </trkpt>
      <trkpt lat="43.55167" lon="6.78173">
        <ele>114.2</ele>
        <time>2025-10-24T09:44:52.000Z</time>
      </trkpt>
      <trkpt lat="43.55167" lon="6.78173">
        <ele>114.2</ele>
        <time>2025-10-24T09:44:53.000Z</time>
      </trkpt>
      <trkpt lat="43.55167" lon="6.78173">
        <ele>114.2</ele>
        <time>2025-10-24T09:44:54.000Z</time>
      </trkpt>
      <trkpt lat="43.55167" lon="6.78173">
        <ele>114.3</ele>
        <time>2025-10-24T09:44:55.000Z</time>
      </trkpt>
      <trkpt lat="43.55167" lon="6.78173">
        <ele>114.3</ele>
        <time>2025-10-24T09:44:56.000Z</time>
      </trkpt>
      <trkpt lat="43.55167" lon="6.78173">
        <ele>114.3</ele>
        <time>2025-10-24T09:44:57.000Z</time>
      </trkpt>
      <trkpt lat="43.55167" lon="6.78173">
        <ele>114.3</ele>
        <time>2025-10-24T09:44:58.000Z</time>
      </trkpt>
      <trkpt lat="43.55167" lon="6.78174">
        <ele>114.3</ele>
        <time>2025-10-24T09:44:59.000Z</time>
      </trkpt>
      <trkpt lat="43.55167" lon="6.78174">
        <ele>114.3</ele>
        <time>2025-10-24T09:45:00.000Z</time>
      </trkpt>
      <trkpt lat="43.55167" lon="6.78174">
        <ele>114.3</ele>
        <time>2025-10-24T09:45:01.000Z</time>
      </trkpt>
      <trkpt lat="43.55167" lon="6.78174">
        <ele>114.4</ele>
        <time>2025-10-24T09:45:02.000Z</time>
      </trkpt>
      <trkpt lat="43.55167" lon="6.78174">
        <ele>114.4</ele>
        <time>2025-10-24T09:45:03.000Z</time>
      </trkpt>
      <trkpt lat="43.55167" lon="6.78174">
        <ele>114.4</ele>
        <time>2025-10-24T09:45:04.000Z</time>
      </trkpt>
      <trkpt lat="43.55167" lon="6.78174">
        <ele>114.4</ele>
        <time>2025-10-24T09:45:05.000Z</time>
      </trkpt>
      <trkpt lat="43.55167" lon="6.78175">
        <ele>114.4</ele>
        <time>2025-10-24T09:45:06.000Z</time>
      </trkpt>
      <trkpt lat="43.55167" lon="6.78175">
        <ele>114.4</ele>
        <time>2025-10-24T09:45:07.000Z</time>
      </trkpt>
      <trkpt lat="43.55167" lon="6.78175">
        <ele>114.4</ele>
        <time>2025-10-24T09:45:08.000Z</time>
      </trkpt>
      <trkpt lat="43.55167" lon="6.78175">
        <ele>114.4</ele>
        <time>2025-10-24T09:45:09.000Z</time>
      </trkpt>
      <trkpt lat="43.55167" lon="6.78175">
        <ele>114.4</ele>
        <time>2025-10-24T09:45:10.000Z</time>
      </trkpt>
      <trkpt lat="43.55167" lon="6.78175">
        <ele>114.4</ele>
        <time>2025-10-24T09:45:11.000Z</time>
      </trkpt>
      <trkpt lat="43.55167" lon="6.78175">
        <ele>114.4</ele>
        <time>2025-10-24T09:45:12.000Z</time>
      </trkpt>
      <trkpt lat="43.55167" lon="6.78175">
        <ele>114.4</ele>
        <time>2025-10-24T09:45:13.000Z</time>
      </trkpt>
      <trkpt lat="43.55167" lon="6.78175">
        <ele>114.4</ele>
        <time>2025-10-24T09:45:14.000Z</time>
      </trkpt>
      <trkpt lat="43.55167" lon="6.78175">
        <ele>114.4</ele>
        <time>2025-10-24T09:45:15.000Z</time>
      </trkpt>
      <trkpt lat="43.55167" lon="6.78175">
        <ele>114.4</ele>
        <time>2025-10-24T09:45:16.000Z</time>
      </trkpt>
      <trkpt lat="43.55167" lon="6.78175">
        <ele>114.4</ele>
        <time>2025-10-24T09:45:17.000Z</time>
      </trkpt>
      <trkpt lat="43.55167" lon="6.78175">
        <ele>114.4</ele>
        <time>2025-10-24T09:45:18.000Z</time>
      </trkpt>
      <trkpt lat="43.55167" lon="6.78175">
        <ele>114.4</ele>
        <time>2025-10-24T09:45:19.000Z</time>
      </trkpt>
      <trkpt lat="43.55167" lon="6.78175">
        <ele>114.4</ele>
        <time>2025-10-24T09:45:20.000Z</time>
      </trkpt>
      <trkpt lat="43.55167" lon="6.78175">
        <ele>114.4</ele>
        <time>2025-10-24T09:45:21.000Z</time>
      </trkpt>
    </trkseg>
  </trk>
</gpx>